createdAt,value
2022-10-14T00:00:05.615Z,10.60
2022-10-14T00:03:00.037Z,10.57
2022-10-14T00:05:28.852Z,10.58
2022-10-14T00:07:57.443Z,10.52
2022-10-14T00:10:25.947Z,10.49
2022-10-14T00:12:54.896Z,10.48
2022-10-14T00:15:23.705Z,10.44
2022-10-14T00:17:52.213Z,10.43
2022-10-14T00:20:20.760Z,10.44
2022-10-14T00:22:49.280Z,10.46
2022-10-14T00:25:19.160Z,10.50
2022-10-14T00:27:47.741Z,10.48
2022-10-14T00:30:16.435Z,10.48
2022-10-14T00:32:45.015Z,10.47
2022-10-14T00:35:13.608Z,10.42
2022-10-14T00:37:42.158Z,10.35
2022-10-14T00:40:11.581Z,10.29
2022-10-14T00:42:40.719Z,10.35
2022-10-14T00:45:16.902Z,10.37
2022-10-14T00:47:45.733Z,10.38
2022-10-14T00:50:16.248Z,10.32
2022-10-14T00:52:45.566Z,10.30
2022-10-14T00:55:19.333Z,10.31
2022-10-14T00:57:48.055Z,10.38
2022-10-14T01:00:20.348Z,10.37
2022-10-14T01:02:49.578Z,10.38
2022-10-14T01:05:20.799Z,10.35
2022-10-14T01:07:58.418Z,10.42
2022-10-14T01:11:02.372Z,10.44
2022-10-14T01:13:40.933Z,10.39
2022-10-14T01:16:43.938Z,10.39
2022-10-14T01:20:36.240Z,10.39
2022-10-14T01:23:34.101Z,10.44
2022-10-14T01:26:41.504Z,10.44
2022-10-14T01:29:40.478Z,10.44
2022-10-14T01:32:20.011Z,10.45
2022-10-14T01:35:08.884Z,10.43
2022-10-14T01:37:48.292Z,10.37
2022-10-14T01:40:51.436Z,10.38
2022-10-14T01:43:23.269Z,10.41
2022-10-14T01:45:54.150Z,10.44
2022-10-14T01:48:28.837Z,10.44
2022-10-14T01:51:01.609Z,10.47
2022-10-14T01:53:38.534Z,10.53
2022-10-14T01:56:08.284Z,10.54
2022-10-14T01:58:39.881Z,10.49
2022-10-14T02:01:10.080Z,10.54
2022-10-14T02:03:44.612Z,10.56
2022-10-14T02:06:23.635Z,10.52
2022-10-14T02:09:01.275Z,10.54
2022-10-14T02:11:46.053Z,10.43
2022-10-14T02:14:52.243Z,10.41
2022-10-14T02:17:29.392Z,10.39
2022-10-14T02:20:03.999Z,10.42
2022-10-14T02:22:41.097Z,10.37
2022-10-14T02:25:25.922Z,10.36
2022-10-14T02:27:55.057Z,10.33
2022-10-14T02:30:23.691Z,10.32
2022-10-14T02:33:01.237Z,10.39
2022-10-14T02:35:31.760Z,10.34
2022-10-14T02:38:01.483Z,10.32
2022-10-14T02:40:38.377Z,10.39
2022-10-14T02:43:10.301Z,10.34
2022-10-14T02:45:41.847Z,10.31
2022-10-14T02:48:11.818Z,10.31
2022-10-14T02:50:42.359Z,10.30
2022-10-14T02:53:14.773Z,10.27
2022-10-14T02:55:46.564Z,10.25
2022-10-14T02:58:15.185Z,10.29
2022-10-14T03:00:43.818Z,10.30
2022-10-14T03:03:13.293Z,10.38
2022-10-14T03:05:43.206Z,10.42
2022-10-14T03:08:14.394Z,10.38
2022-10-14T03:10:48.223Z,10.43
2022-10-14T03:13:17.248Z,10.41
2022-10-14T03:15:51.608Z,10.38
2022-10-14T03:18:21.795Z,10.39
2022-10-14T03:20:50.750Z,10.40
2022-10-14T03:23:23.831Z,10.34
2022-10-14T03:25:53.209Z,10.32
2022-10-14T03:28:35.989Z,10.33
2022-10-14T03:31:51.129Z,10.37
2022-10-14T03:34:25.171Z,10.48
2022-10-14T03:37:01.275Z,10.45
2022-10-14T03:39:30.127Z,10.42
2022-10-14T03:42:04.908Z,10.40
2022-10-14T03:44:39.732Z,10.43
2022-10-14T03:47:14.349Z,10.42
2022-10-14T03:49:42.934Z,10.41
2022-10-14T03:52:17.346Z,10.41
2022-10-14T03:54:45.962Z,10.48
2022-10-14T03:57:16.036Z,10.43
2022-10-14T03:59:50.315Z,10.43
2022-10-14T04:02:19.312Z,10.42
2022-10-14T04:04:48.788Z,10.43
2022-10-14T04:07:17.510Z,10.47
2022-10-14T04:09:50.947Z,10.46
2022-10-14T04:12:20.246Z,10.38
2022-10-14T04:15:05.191Z,10.35
2022-10-14T04:17:39.273Z,10.31
2022-10-14T04:20:12.557Z,10.35
2022-10-14T04:22:41.267Z,10.31
2022-10-14T04:25:10.510Z,10.38
2022-10-14T04:27:39.208Z,10.35
2022-10-14T04:30:10.732Z,10.31
2022-10-14T04:32:48.002Z,10.31
2022-10-14T04:35:18.663Z,10.37
2022-10-14T04:37:49.626Z,10.36
2022-10-14T04:40:26.320Z,10.37
2022-10-14T04:42:57.332Z,10.38
2022-10-14T04:45:29.621Z,10.38
2022-10-14T04:48:02.274Z,10.42
2022-10-14T04:50:31.195Z,10.45
2022-10-14T04:53:21.881Z,10.48
2022-10-14T04:56:31.609Z,10.40
2022-10-14T04:59:02.902Z,10.42
2022-10-14T05:01:46.609Z,10.40
2022-10-14T05:04:15.285Z,10.50
2022-10-14T05:06:44.018Z,10.48
2022-10-14T05:09:14.240Z,10.48
2022-10-14T05:11:42.892Z,10.48
2022-10-14T05:14:12.591Z,10.45
2022-10-14T05:16:41.675Z,10.47
2022-10-14T05:19:10.560Z,10.43
2022-10-14T05:21:44.918Z,10.52
2022-10-14T05:24:16.809Z,10.55
2022-10-14T05:26:46.080Z,10.58
2022-10-14T05:29:15.082Z,10.62
2022-10-14T05:31:44.016Z,10.63
2022-10-14T05:34:28.161Z,10.65
2022-10-14T05:36:57.507Z,10.66
2022-10-14T05:39:26.731Z,10.73
2022-10-14T05:41:56.554Z,10.77
2022-10-14T05:44:26.465Z,10.81
2022-10-14T05:46:55.444Z,10.85
2022-10-14T05:49:24.996Z,10.88
2022-10-14T05:51:55.000Z,10.88
2022-10-14T05:54:24.632Z,10.91
2022-10-14T05:56:54.453Z,11.05
2022-10-14T05:59:23.959Z,11.12
2022-10-14T06:01:52.499Z,11.20
2022-10-14T06:04:21.979Z,11.25
2022-10-14T06:06:50.621Z,11.31
2022-10-14T06:09:19.299Z,11.32
2022-10-14T06:11:48.439Z,11.33
2022-10-14T06:14:17.041Z,11.34
2022-10-14T06:16:50.753Z,11.41
2022-10-14T06:19:19.387Z,11.44
2022-10-14T06:21:48.273Z,11.37
2022-10-14T06:24:17.059Z,11.31
2022-10-14T06:26:45.614Z,11.31
2022-10-14T06:29:14.788Z,11.37
2022-10-14T06:31:44.054Z,11.35
2022-10-14T06:34:12.630Z,11.41
2022-10-14T06:36:41.263Z,11.32
2022-10-14T06:39:09.974Z,11.43
2022-10-14T06:41:38.510Z,11.50
2022-10-14T06:44:08.521Z,11.58
2022-10-14T06:46:37.070Z,11.64
2022-10-14T06:49:05.587Z,11.68
2022-10-14T06:51:39.046Z,11.67
2022-10-14T06:54:08.266Z,11.73
2022-10-14T06:56:37.071Z,11.70
2022-10-14T06:59:06.084Z,11.68
2022-10-14T07:01:34.721Z,11.80
2022-10-14T07:04:05.211Z,11.71
2022-10-14T07:06:33.748Z,11.77
2022-10-14T07:09:02.240Z,11.87
2022-10-14T07:11:31.092Z,11.93
2022-10-14T07:13:59.656Z,11.89
2022-10-14T07:16:28.833Z,11.83
2022-10-14T07:18:57.362Z,11.84
2022-10-14T07:21:25.892Z,11.85
2022-10-14T07:23:55.666Z,11.91
2022-10-14T07:26:24.320Z,11.92
2022-10-14T07:28:53.001Z,11.93
2022-10-14T07:31:21.737Z,11.81
2022-10-14T07:33:50.273Z,11.90
2022-10-14T07:36:22.442Z,11.93
2022-10-14T07:38:51.537Z,11.91
2022-10-14T07:41:24.646Z,11.81
2022-10-14T07:44:06.684Z,11.88
2022-10-14T07:46:40.004Z,11.94
2022-10-14T07:49:16.658Z,11.90
2022-10-14T07:51:46.693Z,11.96
2022-10-14T07:54:26.574Z,12.01
2022-10-14T07:56:55.119Z,12.05
2022-10-14T07:59:24.301Z,12.01
2022-10-14T08:01:54.424Z,12.08
2022-10-14T08:04:24.240Z,12.09
2022-10-14T08:06:53.381Z,12.09
2022-10-14T08:09:22.732Z,12.15
2022-10-14T08:11:51.440Z,12.19
2022-10-14T08:14:20.129Z,12.22
2022-10-14T08:16:48.961Z,12.17
2022-10-14T08:19:20.149Z,12.21
2022-10-14T08:21:51.975Z,12.31
2022-10-14T08:24:20.551Z,12.35
2022-10-14T08:26:54.579Z,12.35
2022-10-14T08:29:25.802Z,12.42
2022-10-14T08:31:55.490Z,12.49
2022-10-14T08:34:28.152Z,12.57
2022-10-14T08:36:56.733Z,12.59
2022-10-14T08:39:25.454Z,12.53
2022-10-14T08:42:04.070Z,12.63
2022-10-14T08:45:08.972Z,12.60
2022-10-14T08:47:43.440Z,12.51
2022-10-14T08:50:38.509Z,12.55
2022-10-14T08:53:17.342Z,12.44
2022-10-14T08:55:56.919Z,12.48
2022-10-14T08:58:46.077Z,12.57
2022-10-14T09:01:54.242Z,12.52
2022-10-14T09:04:22.871Z,12.64
2022-10-14T09:06:54.216Z,12.66
2022-10-14T09:09:30.775Z,12.73
2022-10-14T09:12:06.103Z,12.69
2022-10-14T09:14:39.454Z,12.78
2022-10-14T09:17:38.007Z,12.83
2022-10-14T09:20:24.996Z,12.90
2022-10-14T09:23:11.174Z,12.90
2022-10-14T09:25:47.331Z,13.02
2022-10-14T09:28:17.804Z,12.96
2022-10-14T09:30:46.729Z,12.91
2022-10-14T09:33:21.061Z,12.92
2022-10-14T09:35:50.001Z,13.00
2022-10-14T09:38:21.793Z,13.10
2022-10-14T09:40:56.753Z,13.17
2022-10-14T09:43:26.190Z,13.10
2022-10-14T09:46:02.509Z,13.17
2022-10-14T09:48:39.375Z,13.32
2022-10-14T09:51:30.631Z,13.36
2022-10-14T09:54:03.294Z,13.32
2022-10-14T09:56:40.661Z,13.32
2022-10-14T09:59:29.782Z,13.30
2022-10-14T10:02:04.257Z,13.39
2022-10-14T10:04:47.569Z,13.29
2022-10-14T10:07:42.738Z,13.27
2022-10-14T10:10:22.133Z,13.25
2022-10-14T10:12:51.121Z,13.26
2022-10-14T10:15:21.923Z,13.23
2022-10-14T10:17:51.078Z,13.29
2022-10-14T10:20:39.357Z,13.23
2022-10-14T10:23:25.674Z,13.33
2022-10-14T10:25:54.241Z,13.33
2022-10-14T10:28:33.050Z,13.43
2022-10-14T10:31:24.079Z,13.50
2022-10-14T10:34:51.552Z,13.50
2022-10-14T10:37:35.471Z,13.45
2022-10-14T10:40:34.753Z,13.45
2022-10-14T10:43:38.238Z,13.44
2022-10-14T10:46:52.061Z,13.54
2022-10-14T10:49:36.446Z,13.62
2022-10-14T10:52:29.066Z,13.69
2022-10-14T10:55:35.713Z,13.56
2022-10-14T10:58:13.689Z,13.65
2022-10-14T11:01:26.339Z,13.73
2022-10-14T11:04:42.786Z,13.79
2022-10-14T11:08:15.234Z,13.81
2022-10-14T11:11:41.980Z,13.86
2022-10-14T11:14:42.423Z,13.88
2022-10-14T11:17:50.455Z,13.92
2022-10-14T11:20:50.516Z,14.11
2022-10-14T11:24:00.089Z,14.13
2022-10-14T11:26:47.726Z,14.16
2022-10-14T11:30:14.599Z,14.34
2022-10-14T11:32:43.539Z,14.42
2022-10-14T11:35:27.067Z,14.56
2022-10-14T11:38:30.516Z,14.84
2022-10-14T11:41:40.086Z,14.98
2022-10-14T11:44:32.785Z,15.21
2022-10-14T11:47:10.270Z,15.46
2022-10-14T11:50:10.857Z,15.15
2022-10-14T11:52:53.267Z,14.96
2022-10-14T11:55:24.432Z,14.72
2022-10-14T11:58:00.188Z,14.94
2022-10-14T12:00:33.587Z,14.62
2022-10-14T12:06:57.923Z,14.36
2022-10-14T12:10:00.073Z,14.16
2022-10-14T12:12:36.775Z,14.14
2022-10-14T12:15:19.263Z,14.13
2022-10-14T12:18:00.778Z,14.14
2022-10-14T12:20:57.425Z,14.29
2022-10-14T12:23:55.736Z,14.30
2022-10-14T12:26:24.491Z,14.19
2022-10-14T12:28:54.959Z,14.17
2022-10-14T12:31:39.753Z,14.21
2022-10-14T12:34:11.120Z,14.28
2022-10-14T12:36:42.889Z,14.21
2022-10-14T12:39:17.496Z,14.31
2022-10-14T12:42:15.111Z,14.37
2022-10-14T12:44:58.693Z,14.37
2022-10-14T12:47:37.325Z,14.37
2022-10-14T12:50:31.248Z,14.33
2022-10-14T12:53:03.320Z,14.39
2022-10-14T12:55:49.948Z,14.38
2022-10-14T12:58:34.604Z,14.37
2022-10-14T13:01:21.721Z,14.45
2022-10-14T13:04:05.037Z,14.49
2022-10-14T13:06:42.557Z,14.52
2022-10-14T13:09:15.533Z,14.36
2022-10-14T13:12:19.513Z,14.30
2022-10-14T13:15:05.701Z,14.30
2022-10-14T13:17:47.566Z,14.37
2022-10-14T13:20:37.037Z,14.30
2022-10-14T13:23:31.137Z,14.33
2022-10-14T13:26:07.168Z,14.24
2022-10-14T13:29:20.607Z,14.22
2022-10-14T13:32:41.109Z,14.19
2022-10-14T13:35:30.567Z,14.13
2022-10-14T13:38:12.963Z,14.08
2022-10-14T13:40:51.387Z,14.03
2022-10-14T13:43:42.913Z,14.06
2022-10-14T13:46:39.330Z,13.99
2022-10-14T13:49:20.798Z,13.83
2022-10-14T13:52:02.031Z,13.69
2022-10-14T13:54:31.681Z,13.68
2022-10-14T13:57:38.658Z,13.72
2022-10-14T14:02:53.882Z,13.82
2022-10-14T14:05:32.983Z,13.80
2022-10-14T14:11:16.398Z,13.89
2022-10-14T14:14:01.257Z,13.97
2022-10-14T14:16:50.533Z,14.03
2022-10-14T14:19:28.107Z,14.05
2022-10-14T14:22:24.626Z,14.02
2022-10-14T14:25:38.376Z,14.03
2022-10-14T14:28:17.987Z,13.94
2022-10-14T14:30:55.124Z,13.86
2022-10-14T14:33:34.336Z,13.88
2022-10-14T14:36:14.684Z,13.80
2022-10-14T14:39:01.347Z,13.77
2022-10-14T14:41:33.129Z,13.72
2022-10-14T14:44:24.534Z,13.59
2022-10-14T14:47:00.001Z,13.52
2022-10-14T14:49:39.846Z,13.50
2022-10-14T14:52:12.982Z,13.49
2022-10-14T14:54:48.574Z,13.40
2022-10-14T14:57:20.516Z,13.42
2022-10-14T15:00:02.213Z,13.36
2022-10-14T15:02:35.147Z,13.34
2022-10-14T15:05:13.168Z,13.29
2022-10-14T15:07:43.888Z,13.24
2022-10-14T15:10:26.310Z,13.21
2022-10-14T15:12:59.008Z,13.16
2022-10-14T15:15:56.733Z,13.07
2022-10-14T15:21:40.583Z,12.94
2022-10-14T15:24:20.860Z,12.91
2022-10-14T15:26:49.341Z,12.85
2022-10-14T15:32:15.770Z,12.77
2022-10-14T15:34:44.378Z,12.71
2022-10-14T15:37:15.835Z,12.68
2022-10-14T15:39:44.552Z,12.62
2022-10-14T15:42:14.258Z,12.60
2022-10-14T15:44:42.776Z,12.55
2022-10-14T15:47:23.424Z,12.58
2022-10-14T15:49:51.988Z,12.55
2022-10-14T15:52:24.363Z,12.54
2022-10-14T15:54:58.489Z,12.54
2022-10-14T15:57:27.100Z,12.53
2022-10-14T15:59:55.722Z,12.52
2022-10-14T16:02:33.451Z,12.45
2022-10-14T16:07:50.719Z,12.44
2022-10-14T16:10:22.746Z,12.44
2022-10-14T16:12:51.640Z,12.44
2022-10-14T16:15:59.117Z,12.43
2022-10-14T16:18:28.032Z,12.41
2022-10-14T16:20:58.968Z,12.41
2022-10-14T16:23:29.597Z,12.38
2022-10-14T16:26:02.143Z,12.37
2022-10-14T16:28:30.777Z,12.37
2022-10-14T16:30:59.578Z,12.36
2022-10-14T16:33:28.308Z,12.39
2022-10-14T16:35:57.612Z,12.41
2022-10-14T16:38:26.573Z,12.44
2022-10-14T16:41:03.425Z,12.46
2022-10-14T16:43:32.936Z,12.46
2022-10-14T16:46:03.860Z,12.48
2022-10-14T16:48:36.353Z,12.44
2022-10-14T16:51:07.559Z,12.47
2022-10-14T16:53:43.704Z,12.51
2022-10-14T16:56:40.593Z,12.51
2022-10-14T16:59:13.316Z,12.52
2022-10-14T17:01:41.930Z,12.52
2022-10-14T17:04:13.863Z,12.50
2022-10-14T17:06:42.363Z,12.45
2022-10-14T17:09:12.166Z,12.37
2022-10-14T17:11:42.442Z,12.36
2022-10-14T17:14:17.327Z,12.38
2022-10-14T17:16:48.443Z,12.37
2022-10-14T17:19:16.997Z,12.38
2022-10-14T17:21:46.037Z,12.40
2022-10-14T17:24:17.195Z,12.42
2022-10-14T17:26:46.100Z,12.41
2022-10-14T17:29:16.048Z,12.40
2022-10-14T17:31:46.413Z,12.41
2022-10-14T17:34:17.113Z,12.40
2022-10-14T17:36:45.694Z,12.41
2022-10-14T17:39:22.819Z,12.38
2022-10-14T17:41:57.514Z,12.33
2022-10-14T17:44:26.907Z,12.33
2022-10-14T17:46:55.694Z,12.30
2022-10-14T17:49:24.262Z,12.26
2022-10-14T17:51:52.851Z,12.18
2022-10-14T17:54:21.701Z,12.13
2022-10-14T17:56:50.263Z,12.11
2022-10-14T17:59:19.076Z,12.10
2022-10-14T18:02:04.032Z,12.08
2022-10-14T18:04:33.165Z,12.08
2022-10-14T18:07:01.854Z,12.08
2022-10-14T18:09:30.426Z,12.08
2022-10-14T18:12:14.257Z,12.08
2022-10-14T18:14:44.940Z,12.02
2022-10-14T18:17:13.475Z,11.96
2022-10-14T18:19:42.561Z,11.95
2022-10-14T18:22:11.554Z,11.86
2022-10-14T18:24:40.264Z,11.74
2022-10-14T18:27:08.849Z,11.74
2022-10-14T18:29:39.004Z,11.77
2022-10-14T18:32:07.515Z,11.76
2022-10-14T18:34:36.188Z,11.76
2022-10-14T18:37:04.712Z,11.74
2022-10-14T18:39:33.274Z,11.72
2022-10-14T18:42:02.060Z,11.72
2022-10-14T18:44:30.752Z,11.65
2022-10-14T18:46:59.500Z,11.60
2022-10-14T18:49:30.226Z,11.56
2022-10-14T18:51:58.791Z,11.53
2022-10-14T18:54:28.252Z,11.51
2022-10-14T18:56:58.215Z,11.48
2022-10-14T18:59:29.587Z,11.41
2022-10-14T19:01:58.500Z,11.35
2022-10-14T19:04:27.470Z,11.32
2022-10-14T19:06:56.185Z,11.24
2022-10-14T19:09:29.695Z,11.21
2022-10-14T19:12:21.759Z,11.16
2022-10-14T19:14:50.963Z,11.07
2022-10-14T19:17:22.826Z,11.00
2022-10-14T19:19:51.368Z,10.91
2022-10-14T19:22:20.310Z,10.84
2022-10-14T19:24:48.962Z,10.84
2022-10-14T19:27:17.727Z,10.81
2022-10-14T19:29:46.288Z,10.76
2022-10-14T19:32:14.808Z,10.72
2022-10-14T19:34:47.154Z,10.65
2022-10-14T19:37:16.024Z,10.59
2022-10-14T19:39:44.658Z,10.51
2022-10-14T19:42:13.271Z,10.45
2022-10-14T19:44:41.824Z,10.41
2022-10-14T19:47:10.616Z,10.40
2022-10-14T19:49:39.193Z,10.38
2022-10-14T19:52:08.062Z,10.37
2022-10-14T19:54:36.648Z,10.35
2022-10-14T19:57:05.359Z,10.32
2022-10-14T19:59:39.327Z,10.27
2022-10-14T20:02:10.869Z,10.21
2022-10-14T20:04:40.370Z,10.22
2022-10-14T20:07:09.034Z,10.25
2022-10-14T20:09:37.604Z,10.27
2022-10-14T20:12:06.562Z,10.26
2022-10-14T20:14:35.056Z,10.25
2022-10-14T20:17:03.996Z,10.23
2022-10-14T20:19:32.549Z,10.25
2022-10-14T20:22:01.796Z,10.27
2022-10-14T20:24:30.320Z,10.28
2022-10-14T20:26:58.834Z,10.29
2022-10-14T20:29:27.395Z,10.30
2022-10-14T20:31:56.489Z,10.32
2022-10-14T20:34:25.646Z,10.34
2022-10-14T20:36:54.117Z,10.38
2022-10-14T20:39:24.014Z,10.41
2022-10-14T20:41:53.385Z,10.43
2022-10-14T20:44:23.909Z,10.44
2022-10-14T20:46:52.846Z,10.46
2022-10-14T20:49:21.420Z,10.50
2022-10-14T20:51:50.000Z,10.53
2022-10-14T20:54:18.647Z,10.55
2022-10-14T20:56:49.335Z,10.54
2022-10-14T20:59:18.060Z,10.52
2022-10-14T21:01:47.663Z,10.51
2022-10-14T21:04:16.366Z,10.53
2022-10-14T21:06:46.318Z,10.60
2022-10-14T21:09:15.049Z,10.68
2022-10-14T21:11:46.767Z,10.78
2022-10-14T21:14:15.716Z,10.85
2022-10-14T21:16:44.270Z,10.92
2022-10-14T21:19:12.778Z,10.96
2022-10-14T21:21:45.525Z,11.00
2022-10-14T21:24:18.409Z,11.06
2022-10-14T21:26:50.385Z,11.04
2022-10-14T21:29:22.714Z,11.04
2022-10-14T21:31:51.517Z,11.03
2022-10-14T21:34:20.021Z,11.00
2022-10-14T21:36:48.542Z,10.98
2022-10-14T21:39:18.448Z,10.87
2022-10-14T21:41:47.064Z,10.85
2022-10-14T21:44:19.899Z,10.77
2022-10-14T21:46:48.953Z,10.63
2022-10-14T21:49:17.872Z,10.54
2022-10-14T21:51:46.414Z,10.51
2022-10-14T21:54:14.920Z,10.46
2022-10-14T21:56:43.444Z,10.45
2022-10-14T21:59:12.612Z,10.40
2022-10-14T22:01:42.168Z,10.40
2022-10-14T22:04:11.257Z,10.34
2022-10-14T22:06:39.780Z,10.34
2022-10-14T22:09:08.837Z,10.32
2022-10-14T22:11:40.412Z,10.33
2022-10-14T22:14:19.149Z,10.31
2022-10-14T22:16:48.243Z,10.31
2022-10-14T22:19:16.844Z,10.25
2022-10-14T22:21:46.510Z,10.21
2022-10-14T22:24:15.256Z,10.20
2022-10-14T22:26:43.843Z,10.13
2022-10-14T22:29:15.443Z,10.05
2022-10-14T22:31:44.951Z,10.01
2022-10-14T22:34:17.234Z,9.99
2022-10-14T22:36:46.286Z,10.01
2022-10-14T22:39:17.176Z,9.96
2022-10-14T22:41:45.686Z,9.95
2022-10-14T22:44:14.294Z,9.92
2022-10-14T22:46:42.906Z,9.90
2022-10-14T22:49:11.461Z,9.81
2022-10-14T22:51:40.942Z,9.71
2022-10-14T22:54:10.981Z,9.69
2022-10-14T22:56:40.134Z,9.65
2022-10-14T22:59:11.351Z,9.62
2022-10-14T23:01:42.364Z,9.58
2022-10-14T23:04:11.910Z,9.53
2022-10-14T23:06:43.671Z,9.47
2022-10-14T23:09:12.142Z,9.43
2022-10-14T23:11:40.812Z,9.39
2022-10-14T23:14:09.590Z,9.36
2022-10-14T23:16:39.160Z,9.32
2022-10-14T23:19:08.157Z,9.27
2022-10-14T23:21:38.508Z,9.24
2022-10-14T23:24:11.955Z,9.21
2022-10-14T23:26:40.630Z,9.15
2022-10-14T23:29:14.257Z,9.12
2022-10-14T23:31:42.849Z,9.07
2022-10-14T23:34:14.245Z,9.05
2022-10-14T23:36:43.202Z,9.02
2022-10-14T23:39:11.924Z,8.94
2022-10-14T23:41:40.503Z,8.96
2022-10-14T23:44:12.298Z,8.93
2022-10-14T23:46:40.849Z,8.88
2022-10-14T23:49:25.113Z,8.83
2022-10-14T23:51:55.591Z,8.77
2022-10-14T23:54:24.663Z,8.73
2022-10-14T23:56:53.352Z,8.69
2022-10-14T23:59:21.884Z,8.66
